createdAt,value
2019-02-17T00:00:59.155Z,1006.83
2019-02-17T00:01:59.077Z,1006.82
2019-02-17T00:02:59.090Z,1006.81
2019-02-17T00:03:59.080Z,1006.81
2019-02-17T00:04:59.049Z,1006.80
2019-02-17T00:05:59.036Z,1006.84
2019-02-17T00:06:59.022Z,1006.86
2019-02-17T00:07:59.010Z,1006.87
2019-02-17T00:08:59.086Z,1006.88
2019-02-17T00:09:59.000Z,1006.87
2019-02-17T00:10:58.988Z,1006.89
2019-02-17T00:11:58.983Z,1006.87
2019-02-17T00:12:58.959Z,1006.83
2019-02-17T00:13:58.971Z,1006.77
2019-02-17T00:14:58.934Z,1006.75
2019-02-17T00:15:58.948Z,1006.75
2019-02-17T00:16:58.914Z,1006.74
2019-02-17T00:17:58.905Z,1006.72
2019-02-17T00:18:58.909Z,1006.71
2019-02-17T00:19:58.890Z,1006.70
2019-02-17T00:20:58.865Z,1006.70
2019-02-17T00:21:58.887Z,1006.70
2019-02-17T00:22:58.849Z,1006.70
2019-02-17T00:23:58.857Z,1006.71
2019-02-17T00:24:58.821Z,1006.73
2019-02-17T00:25:58.819Z,1006.74
2019-02-17T00:26:58.800Z,1006.70
2019-02-17T00:27:58.814Z,1006.68
2019-02-17T00:28:59.832Z,1006.70
2019-02-17T00:29:58.762Z,1006.68
2019-02-17T00:30:58.761Z,1006.70
2019-02-17T00:31:58.738Z,1006.68
2019-02-17T00:32:58.732Z,1006.67
2019-02-17T00:33:58.791Z,1006.68
2019-02-17T00:34:58.707Z,1006.64
2019-02-17T00:35:58.711Z,1006.65
2019-02-17T00:36:58.685Z,1006.64
2019-02-17T00:37:58.682Z,1006.64
2019-02-17T00:38:58.696Z,1006.62
2019-02-17T00:39:58.685Z,1006.58
2019-02-17T00:40:58.639Z,1006.59
2019-02-17T00:41:58.631Z,1006.60
2019-02-17T00:42:58.614Z,1006.61
2019-02-17T00:43:58.630Z,1006.60
2019-02-17T00:44:58.665Z,1006.62
2019-02-17T00:45:58.587Z,1006.61
2019-02-17T00:46:58.574Z,1006.59
2019-02-17T00:47:58.560Z,1006.57
2019-02-17T00:48:58.575Z,1006.58
2019-02-17T00:49:58.550Z,1006.56
2019-02-17T00:50:58.586Z,1006.56
2019-02-17T00:51:58.514Z,1006.55
2019-02-17T00:52:58.506Z,1006.55
2019-02-17T00:53:58.516Z,1006.54
2019-02-17T00:54:58.484Z,1006.56
2019-02-17T00:55:58.473Z,1006.54
2019-02-17T00:56:58.500Z,1006.56
2019-02-17T00:57:58.447Z,1006.56
2019-02-17T00:58:58.455Z,1006.56
2019-02-17T00:59:58.423Z,1006.58
2019-02-17T01:00:58.426Z,1006.52
2019-02-17T01:01:58.417Z,1006.58
2019-02-17T01:02:58.428Z,1006.55
2019-02-17T01:03:58.404Z,1006.50
2019-02-17T01:04:58.373Z,1006.49
2019-02-17T01:05:58.371Z,1006.48
2019-02-17T01:06:58.353Z,1006.48
2019-02-17T01:07:58.355Z,1006.47
2019-02-17T01:08:58.381Z,1006.51
2019-02-17T01:09:58.319Z,1006.49
2019-02-17T01:10:58.304Z,1006.44
2019-02-17T01:11:58.301Z,1006.42
2019-02-17T01:12:58.284Z,1006.44
2019-02-17T01:13:58.298Z,1006.41
2019-02-17T01:14:58.288Z,1006.38
2019-02-17T01:15:58.247Z,1006.37
2019-02-17T01:16:58.234Z,1006.33
2019-02-17T01:17:58.225Z,1006.34
2019-02-17T01:18:58.236Z,1006.34
2019-02-17T01:19:58.211Z,1006.33
2019-02-17T01:20:58.226Z,1006.36
2019-02-17T01:21:58.177Z,1006.35
2019-02-17T01:22:58.170Z,1006.34
2019-02-17T01:23:58.188Z,1006.35
2019-02-17T01:24:58.147Z,1006.33
2019-02-17T01:25:58.135Z,1006.36
2019-02-17T01:26:58.136Z,1006.36
2019-02-17T01:27:58.113Z,1006.36
2019-02-17T01:28:58.128Z,1006.39
2019-02-17T01:29:58.098Z,1006.33
2019-02-17T01:30:58.078Z,1006.33
2019-02-17T01:31:58.069Z,1006.33
2019-02-17T01:32:58.099Z,1006.28
2019-02-17T01:33:58.073Z,1006.27
2019-02-17T01:34:58.044Z,1006.33
2019-02-17T01:35:58.054Z,1006.31
2019-02-17T01:36:58.007Z,1006.28
2019-02-17T01:37:58.365Z,1006.29
2019-02-17T01:38:58.035Z,1006.26
2019-02-17T01:39:58.005Z,1006.28
2019-02-17T01:40:57.966Z,1006.24
2019-02-17T01:41:57.962Z,1006.27
2019-02-17T01:42:57.945Z,1006.26
2019-02-17T01:43:57.940Z,1006.30
2019-02-17T01:45:05.083Z,1006.29
2019-02-17T01:46:04.969Z,1006.27
2019-02-17T01:46:57.918Z,1006.33
2019-02-17T01:47:58.033Z,1006.26
2019-02-17T01:49:04.985Z,1006.27
2019-02-17T01:50:04.974Z,1006.27
2019-02-17T01:50:57.875Z,1006.23
2019-02-17T01:52:05.000Z,1006.23
2019-02-17T01:52:57.863Z,1006.22
2019-02-17T01:53:57.839Z,1006.21
2019-02-17T01:54:57.939Z,1006.22
2019-02-17T01:55:57.807Z,1006.18
2019-02-17T01:56:57.792Z,1006.13
2019-02-17T01:57:57.884Z,1006.14
2019-02-17T01:58:57.793Z,1006.13
2019-02-17T01:59:57.778Z,1006.08
2019-02-17T02:00:57.777Z,1006.11
2019-02-17T02:01:57.730Z,1006.12
2019-02-17T02:02:57.719Z,1006.07
2019-02-17T02:03:57.742Z,1006.08
2019-02-17T02:04:57.722Z,1006.12
2019-02-17T02:05:57.689Z,1006.10
2019-02-17T02:06:57.682Z,1006.09
2019-02-17T02:07:57.664Z,1006.07
2019-02-17T02:08:57.702Z,1006.08
2019-02-17T02:09:57.664Z,1006.08
2019-02-17T02:10:57.629Z,1006.04
2019-02-17T02:11:57.623Z,1006.06
2019-02-17T02:12:57.603Z,1006.08
2019-02-17T02:13:57.607Z,1006.04
2019-02-17T02:14:57.627Z,1006.02
2019-02-17T02:15:57.569Z,1005.99
2019-02-17T02:16:57.561Z,1006.01
2019-02-17T02:17:57.548Z,1006.01
2019-02-17T02:18:57.535Z,1005.99
2019-02-17T02:19:57.551Z,1005.98
2019-02-17T02:20:57.535Z,1006.01
2019-02-17T02:21:57.508Z,1005.98
2019-02-17T02:22:57.495Z,1005.98
2019-02-17T02:23:57.487Z,1005.94
2019-02-17T02:24:57.497Z,1005.93
2019-02-17T02:25:57.471Z,1005.96
2019-02-17T02:26:57.485Z,1005.97
2019-02-17T02:27:57.515Z,1005.94
2019-02-17T02:28:57.429Z,1005.92
2019-02-17T02:29:57.439Z,1005.92
2019-02-17T02:30:57.408Z,1005.90
2019-02-17T02:31:57.395Z,1005.91
2019-02-17T02:32:57.378Z,1005.88
2019-02-17T02:33:57.399Z,1005.88
2019-02-17T02:34:57.386Z,1005.87
2019-02-17T02:35:57.349Z,1005.86
2019-02-17T02:36:57.337Z,1005.85
2019-02-17T02:37:57.326Z,1005.79
2019-02-17T02:38:57.318Z,1005.78
2019-02-17T02:39:57.364Z,1005.80
2019-02-17T02:40:57.296Z,1005.78
2019-02-17T02:41:57.291Z,1005.77
2019-02-17T02:42:57.273Z,1005.73
2019-02-17T02:43:57.263Z,1005.75
2019-02-17T02:44:57.279Z,1005.76
2019-02-17T02:45:57.276Z,1005.73
2019-02-17T02:46:57.228Z,1005.68
2019-02-17T02:47:57.223Z,1005.70
2019-02-17T02:48:57.217Z,1005.72
2019-02-17T02:49:57.222Z,1005.72
2019-02-17T02:50:57.189Z,1005.74
2019-02-17T02:51:57.175Z,1005.75
2019-02-17T02:52:57.170Z,1005.71
2019-02-17T02:53:57.146Z,1005.74
2019-02-17T02:54:57.170Z,1005.72
2019-02-17T02:55:57.133Z,1005.73
2019-02-17T02:56:57.113Z,1005.74
2019-02-17T02:57:57.110Z,1005.73
2019-02-17T02:58:57.103Z,1005.73
2019-02-17T02:59:57.114Z,1005.72
2019-02-17T03:00:57.104Z,1005.71
2019-02-17T03:01:57.057Z,1005.71
2019-02-17T03:02:57.056Z,1005.70
2019-02-17T03:03:57.041Z,1005.72
2019-02-17T03:04:57.051Z,1005.68
2019-02-17T03:05:57.013Z,1005.71
2019-02-17T03:06:57.047Z,1005.68
2019-02-17T03:07:56.993Z,1005.68
2019-02-17T03:08:56.978Z,1005.64
2019-02-17T03:09:56.997Z,1005.67
2019-02-17T03:10:56.971Z,1005.62
2019-02-17T03:11:56.950Z,1005.63
2019-02-17T03:12:56.933Z,1005.61
2019-02-17T03:13:56.946Z,1005.60
2019-02-17T03:14:56.939Z,1005.56
2019-02-17T03:15:56.903Z,1005.60
2019-02-17T03:16:56.894Z,1005.56
2019-02-17T03:17:56.883Z,1005.56
2019-02-17T03:18:56.897Z,1005.55
2019-02-17T03:19:56.876Z,1005.49
2019-02-17T03:20:56.930Z,1005.54
2019-02-17T03:21:56.846Z,1005.60
2019-02-17T03:22:56.825Z,1005.59
2019-02-17T03:23:56.818Z,1005.58
2019-02-17T03:24:56.803Z,1005.55
2019-02-17T03:25:56.849Z,1005.55
2019-02-17T03:26:56.781Z,1005.51
2019-02-17T03:27:56.776Z,1005.55
2019-02-17T03:28:56.761Z,1005.54
2019-02-17T03:30:05.173Z,1005.50
2019-02-17T03:30:57.779Z,1005.53
2019-02-17T03:31:56.754Z,1005.52
2019-02-17T03:32:56.719Z,1005.52
2019-02-17T03:33:56.705Z,1005.54
2019-02-17T03:34:56.696Z,1005.53
2019-02-17T03:35:56.705Z,1005.54
2019-02-17T03:36:56.671Z,1005.54
2019-02-17T03:37:56.693Z,1005.49
2019-02-17T03:38:56.657Z,1005.51
2019-02-17T03:39:56.640Z,1005.46
2019-02-17T03:40:56.656Z,1005.48
2019-02-17T03:41:56.610Z,1005.47
2019-02-17T03:42:56.600Z,1005.50
2019-02-17T03:43:56.593Z,1005.48
2019-02-17T03:44:56.631Z,1005.50
2019-02-17T03:45:56.597Z,1005.49
2019-02-17T03:46:56.557Z,1005.48
2019-02-17T03:47:56.545Z,1005.49
2019-02-17T03:48:56.539Z,1005.44
2019-02-17T03:49:56.525Z,1005.45
2019-02-17T03:50:56.572Z,1005.49
2019-02-17T03:51:56.500Z,1005.48
2019-02-17T03:52:56.489Z,1005.40
2019-02-17T03:53:56.485Z,1005.40
2019-02-17T03:54:56.482Z,1005.41
2019-02-17T03:55:56.493Z,1005.42
2019-02-17T03:56:56.498Z,1005.40
2019-02-17T03:57:56.442Z,1005.41
2019-02-17T03:58:56.430Z,1005.37
2019-02-17T03:59:56.418Z,1005.38
2019-02-17T04:00:56.426Z,1005.40
2019-02-17T04:01:56.390Z,1005.37
2019-02-17T04:02:56.406Z,1005.37
2019-02-17T04:03:56.380Z,1005.39
2019-02-17T04:04:56.365Z,1005.41
2019-02-17T04:05:56.384Z,1005.41
2019-02-17T04:06:56.337Z,1005.39
2019-02-17T04:07:56.333Z,1005.45
2019-02-17T04:08:56.337Z,1005.43
2019-02-17T04:09:56.299Z,1005.44
2019-02-17T04:10:56.317Z,1005.41
2019-02-17T04:11:56.278Z,1005.38
2019-02-17T04:12:56.263Z,1005.42
2019-02-17T04:13:56.255Z,1005.42
2019-02-17T04:14:56.287Z,1005.40
2019-02-17T04:15:56.258Z,1005.43
2019-02-17T04:16:56.223Z,1005.42
2019-02-17T04:17:56.222Z,1005.38
2019-02-17T04:18:56.200Z,1005.41
2019-02-17T04:19:56.190Z,1005.39
2019-02-17T04:20:56.239Z,1005.36
2019-02-17T04:21:56.161Z,1005.35
2019-02-17T04:22:56.154Z,1005.39
2019-02-17T04:23:56.152Z,1005.41
2019-02-17T04:24:56.137Z,1005.39
2019-02-17T04:25:56.161Z,1005.39
2019-02-17T04:26:56.119Z,1005.35
2019-02-17T04:27:56.140Z,1005.36
2019-02-17T04:28:56.087Z,1005.38
2019-02-17T04:29:56.077Z,1005.31
2019-02-17T04:30:56.822Z,1005.33
2019-02-17T04:31:56.067Z,1005.30
2019-02-17T04:32:56.042Z,1005.34
2019-02-17T04:33:56.048Z,1005.30
2019-02-17T04:34:56.018Z,1005.29
2019-02-17T04:35:56.027Z,1005.26
2019-02-17T04:36:56.000Z,1005.29
2019-02-17T04:37:55.993Z,1005.27
2019-02-17T04:38:55.972Z,1005.27
2019-02-17T04:39:56.013Z,1005.30
2019-02-17T04:40:55.974Z,1005.27
2019-02-17T04:41:55.939Z,1005.27
2019-02-17T04:42:55.931Z,1005.26
2019-02-17T04:43:55.920Z,1005.25
2019-02-17T04:44:55.911Z,1005.25
2019-02-17T04:45:55.959Z,1005.27
2019-02-17T04:46:55.888Z,1005.24
2019-02-17T04:47:55.873Z,1005.24
2019-02-17T04:48:55.858Z,1005.23
2019-02-17T04:49:55.849Z,1005.24
2019-02-17T04:50:55.865Z,1005.21
2019-02-17T04:51:55.845Z,1005.23
2019-02-17T04:52:55.823Z,1005.20
2019-02-17T04:53:55.813Z,1005.18
2019-02-17T04:54:55.795Z,1005.19
2019-02-17T04:55:55.806Z,1005.17
2019-02-17T04:56:55.774Z,1005.20
2019-02-17T04:57:55.805Z,1005.19
2019-02-17T04:58:55.772Z,1005.20
2019-02-17T04:59:55.742Z,1005.17
2019-02-17T05:00:55.730Z,1005.17
2019-02-17T05:01:55.740Z,1005.16
2019-02-17T05:02:55.715Z,1005.14
2019-02-17T05:03:55.692Z,1005.14
2019-02-17T05:04:55.685Z,1005.14
2019-02-17T05:05:55.780Z,1005.16
2019-02-17T05:06:55.689Z,1005.10
2019-02-17T05:07:55.649Z,1005.13
2019-02-17T05:08:55.638Z,1005.09
2019-02-17T05:09:55.630Z,1005.09
2019-02-17T05:10:55.627Z,1005.09
2019-02-17T05:11:55.668Z,1005.08
2019-02-17T05:12:55.601Z,1005.07
2019-02-17T05:13:55.581Z,1005.05
2019-02-17T05:14:55.576Z,1005.06
2019-02-17T05:15:55.568Z,1005.05
2019-02-17T05:16:55.571Z,1005.04
2019-02-17T05:17:55.568Z,1005.08
2019-02-17T05:18:55.524Z,1005.04
2019-02-17T05:19:55.514Z,1005.00
2019-02-17T05:20:55.511Z,1005.02
2019-02-17T05:21:55.531Z,1005.04
2019-02-17T05:22:55.483Z,1005.04
2019-02-17T05:23:55.505Z,1005.03
2019-02-17T05:24:55.457Z,1005.02
2019-02-17T05:25:55.449Z,1005.01
2019-02-17T05:26:55.471Z,1005.00
2019-02-17T05:27:55.425Z,1005.03
2019-02-17T05:28:56.621Z,1005.02
2019-02-17T05:29:55.425Z,1005.05
2019-02-17T05:30:55.405Z,1005.00
2019-02-17T05:31:55.426Z,1005.03
2019-02-17T05:32:55.378Z,1004.99
2019-02-17T05:33:55.362Z,1004.99
2019-02-17T05:34:55.350Z,1004.97
2019-02-17T05:35:55.356Z,1004.95
2019-02-17T05:36:55.405Z,1004.97
2019-02-17T05:37:55.326Z,1004.96
2019-02-17T05:39:01.821Z,1004.94
2019-02-17T05:39:55.297Z,1004.99
2019-02-17T05:40:55.284Z,1004.96
2019-02-17T05:41:55.293Z,1004.91
2019-02-17T05:42:55.302Z,1004.94
2019-02-17T05:43:55.267Z,1004.95
2019-02-17T05:44:55.253Z,1004.94
2019-02-17T05:45:55.232Z,1004.89
2019-02-17T05:46:55.246Z,1004.91
2019-02-17T05:47:55.215Z,1004.91
2019-02-17T05:48:55.248Z,1004.88
2019-02-17T05:49:55.189Z,1004.87
2019-02-17T05:50:55.180Z,1004.84
2019-02-17T05:51:55.194Z,1004.88
2019-02-17T05:52:55.155Z,1004.93
2019-02-17T05:53:55.142Z,1004.88
2019-02-17T05:54:55.171Z,1004.87
2019-02-17T05:55:55.126Z,1004.81
2019-02-17T05:56:55.132Z,1004.84
2019-02-17T05:57:55.104Z,1004.85
2019-02-17T05:58:55.095Z,1004.82
2019-02-17T05:59:55.080Z,1004.83
2019-02-17T06:01:03.262Z,1004.85
2019-02-17T06:01:56.082Z,1004.78
2019-02-17T06:02:55.048Z,1004.82
2019-02-17T06:03:55.035Z,1004.85
2019-02-17T06:04:55.026Z,1004.86
2019-02-17T06:05:55.030Z,1004.86
2019-02-17T06:06:55.077Z,1004.86
2019-02-17T06:07:54.993Z,1004.85
2019-02-17T06:08:54.989Z,1004.85
2019-02-17T06:09:54.977Z,1004.84
2019-02-17T06:10:54.958Z,1004.83
2019-02-17T06:11:55.027Z,1004.84
2019-02-17T06:12:54.983Z,1004.84
2019-02-17T06:13:54.932Z,1004.88
2019-02-17T06:14:54.924Z,1004.85
2019-02-17T06:15:54.904Z,1004.84
2019-02-17T06:16:54.914Z,1004.84
2019-02-17T06:17:54.960Z,1004.87
2019-02-17T06:18:54.873Z,1004.87
2019-02-17T06:19:54.891Z,1004.85
2019-02-17T06:20:54.848Z,1004.86
2019-02-17T06:21:54.864Z,1004.88
2019-02-17T06:22:54.830Z,1004.89
2019-02-17T06:23:54.823Z,1004.87
2019-02-17T06:24:54.812Z,1004.85
2019-02-17T06:25:54.810Z,1004.91
2019-02-17T06:26:54.817Z,1004.92
2019-02-17T06:27:54.771Z,1004.91
2019-02-17T06:28:54.764Z,1004.94
2019-02-17T06:29:54.760Z,1004.94
2019-02-17T06:30:54.739Z,1004.95
2019-02-17T06:31:54.794Z,1004.95
2019-02-17T06:32:54.717Z,1004.95
2019-02-17T06:33:54.715Z,1004.92
2019-02-17T06:34:54.703Z,1004.95
2019-02-17T06:35:54.691Z,1004.92
2019-02-17T06:36:54.712Z,1004.97
2019-02-17T06:37:54.667Z,1004.99
2019-02-17T06:38:54.691Z,1005.01
2019-02-17T06:39:54.643Z,1005.00
2019-02-17T06:40:54.662Z,1004.99
2019-02-17T06:41:54.630Z,1005.00
2019-02-17T06:42:54.636Z,1005.00
2019-02-17T06:43:54.600Z,1004.97
2019-02-17T06:44:54.599Z,1004.98
2019-02-17T06:45:54.622Z,1005.00
2019-02-17T06:46:54.579Z,1005.01
2019-02-17T06:47:54.583Z,1005.00
2019-02-17T06:48:54.548Z,1004.94
2019-02-17T06:49:54.533Z,1004.95
2019-02-17T06:50:54.525Z,1004.94
2019-02-17T06:51:54.561Z,1004.96
2019-02-17T06:52:54.525Z,1004.98
2019-02-17T06:53:54.497Z,1004.94
2019-02-17T06:54:54.479Z,1004.91
2019-02-17T06:55:54.469Z,1004.94
2019-02-17T06:56:54.465Z,1004.99
2019-02-17T06:57:54.521Z,1004.96
2019-02-17T06:58:54.434Z,1004.93
2019-02-17T06:59:54.425Z,1004.95
2019-02-17T07:00:54.410Z,1004.89
2019-02-17T07:01:54.400Z,1004.90
2019-02-17T07:02:54.413Z,1004.90
2019-02-17T07:03:54.411Z,1004.92
2019-02-17T07:04:54.390Z,1004.87
2019-02-17T07:05:56.631Z,1004.83
2019-02-17T07:06:54.380Z,1004.87
2019-02-17T07:07:54.365Z,1004.84
2019-02-17T07:08:54.330Z,1004.85
2019-02-17T07:09:54.336Z,1004.85
2019-02-17T07:10:54.308Z,1004.86
2019-02-17T07:11:56.792Z,1004.91
2019-02-17T07:12:54.309Z,1004.82
2019-02-17T07:13:54.270Z,1004.85
2019-02-17T07:14:54.259Z,1004.84
2019-02-17T07:15:54.271Z,1004.79
2019-02-17T07:16:54.236Z,1004.86
2019-02-17T07:17:54.250Z,1004.82
2019-02-17T07:18:54.223Z,1004.84
2019-02-17T07:19:54.211Z,1004.84
2019-02-17T07:20:54.199Z,1004.84
2019-02-17T07:21:54.219Z,1004.87
2019-02-17T07:22:54.196Z,1004.82
2019-02-17T07:23:54.159Z,1004.83
2019-02-17T07:24:54.160Z,1004.79
2019-02-17T07:25:54.148Z,1004.86
2019-02-17T07:26:54.126Z,1004.85
2019-02-17T07:27:54.190Z,1004.86
2019-02-17T07:28:54.107Z,1004.84
2019-02-17T07:29:54.095Z,1004.86
2019-02-17T07:30:54.087Z,1004.88
2019-02-17T07:31:54.078Z,1004.80
2019-02-17T07:33:01.185Z,1004.82
2019-02-17T07:33:54.098Z,1004.88
2019-02-17T07:34:54.048Z,1004.87
2019-02-17T07:35:54.043Z,1004.82
2019-02-17T07:37:01.101Z,1004.84
2019-02-17T07:38:01.132Z,1004.87
2019-02-17T07:39:01.945Z,1004.83
2019-02-17T07:40:01.056Z,1004.80
2019-02-17T07:41:01.038Z,1004.81
2019-02-17T07:41:53.967Z,1004.82
2019-02-17T07:42:54.018Z,1004.78
2019-02-17T07:43:53.968Z,1004.82
2019-02-17T07:44:53.942Z,1004.84
2019-02-17T07:45:54.032Z,1004.81
2019-02-17T07:46:53.942Z,1004.82
2019-02-17T07:47:53.957Z,1004.85
2019-02-17T07:48:53.893Z,1004.86
2019-02-17T07:49:53.922Z,1004.83
2019-02-17T07:50:53.894Z,1004.81
2019-02-17T07:51:53.864Z,1004.84
2019-02-17T07:52:53.876Z,1004.81
2019-02-17T07:53:53.888Z,1004.87
2019-02-17T07:54:53.947Z,1004.80
2019-02-17T07:55:53.846Z,1004.82
2019-02-17T07:56:53.793Z,1004.79
2019-02-17T07:57:53.859Z,1004.80
2019-02-17T07:58:53.773Z,1004.81
2019-02-17T07:59:53.759Z,1004.84
2019-02-17T08:00:53.794Z,1004.85
2019-02-17T08:01:53.742Z,1004.83
2019-02-17T08:02:53.757Z,1004.81
2019-02-17T08:03:53.715Z,1004.86
2019-02-17T08:04:53.707Z,1004.83
2019-02-17T08:05:53.722Z,1004.88
2019-02-17T08:06:53.684Z,1004.86
2019-02-17T08:07:53.707Z,1004.85
2019-02-17T08:08:53.667Z,1004.82
2019-02-17T08:09:53.650Z,1004.83
2019-02-17T08:11:03.485Z,1004.85
2019-02-17T08:11:54.625Z,1004.85
2019-02-17T08:12:53.678Z,1004.81
2019-02-17T08:13:53.605Z,1004.84
2019-02-17T08:14:53.591Z,1004.82
2019-02-17T08:15:53.585Z,1004.85
2019-02-17T08:16:53.568Z,1004.86
2019-02-17T08:17:53.588Z,1004.80
2019-02-17T08:18:53.586Z,1004.80
2019-02-17T08:19:53.538Z,1004.82
2019-02-17T08:20:53.530Z,1004.79
2019-02-17T08:21:53.515Z,1004.76
2019-02-17T08:22:53.541Z,1004.82
2019-02-17T08:23:55.069Z,1004.83
2019-02-17T08:24:53.508Z,1004.75
2019-02-17T08:25:53.481Z,1004.74
2019-02-17T08:26:53.463Z,1004.70
2019-02-17T08:27:53.446Z,1004.76
2019-02-17T08:28:53.470Z,1004.72
2019-02-17T08:29:53.425Z,1004.71
2019-02-17T08:30:53.433Z,1004.72
2019-02-17T08:31:56.142Z,1004.71
2019-02-17T08:32:53.396Z,1004.72
2019-02-17T08:33:53.403Z,1004.68
2019-02-17T08:34:53.373Z,1004.71
2019-02-17T08:35:53.356Z,1004.66
2019-02-17T08:36:53.399Z,1004.64
2019-02-17T08:37:53.340Z,1004.63
2019-02-17T08:38:53.350Z,1004.62
2019-02-17T08:39:53.320Z,1004.66
2019-02-17T08:40:53.312Z,1004.60
2019-02-17T08:41:53.291Z,1004.57
2019-02-17T08:42:53.308Z,1004.59
2019-02-17T08:43:53.300Z,1004.57
2019-02-17T08:44:53.267Z,1004.55
2019-02-17T08:45:53.244Z,1004.59
2019-02-17T08:46:53.235Z,1004.59
2019-02-17T08:47:53.224Z,1004.55
2019-02-17T08:48:53.278Z,1004.59
2019-02-17T08:49:53.237Z,1004.55
2019-02-17T08:50:53.198Z,1004.53
2019-02-17T08:51:53.183Z,1004.54
2019-02-17T08:52:53.173Z,1004.51
2019-02-17T08:53:53.183Z,1004.49
2019-02-17T08:54:53.177Z,1004.53
2019-02-17T08:55:53.137Z,1004.53
2019-02-17T08:56:53.133Z,1004.53
2019-02-17T08:57:53.114Z,1004.51
2019-02-17T08:58:53.130Z,1004.53
2019-02-17T08:59:53.095Z,1004.52
2019-02-17T09:00:53.105Z,1004.52
2019-02-17T09:01:53.082Z,1004.52
2019-02-17T09:02:53.077Z,1004.52
2019-02-17T09:03:53.088Z,1004.49
2019-02-17T09:04:53.044Z,1004.51
2019-02-17T09:05:53.025Z,1004.45
2019-02-17T09:06:53.020Z,1004.51
2019-02-17T09:07:53.006Z,1004.44
2019-02-17T09:08:56.080Z,1004.44
2019-02-17T09:09:52.978Z,1004.37
2019-02-17T09:10:52.974Z,1004.38
2019-02-17T09:11:52.955Z,1004.35
2019-02-17T09:12:52.954Z,1004.34
2019-02-17T09:13:52.964Z,1004.35
2019-02-17T09:14:52.976Z,1004.33
2019-02-17T09:15:52.977Z,1004.35
2019-02-17T09:16:52.904Z,1004.31
2019-02-17T09:17:52.893Z,1004.34
2019-02-17T09:18:52.900Z,1004.30
2019-02-17T09:19:52.867Z,1004.26
2019-02-17T09:20:52.904Z,1004.27
2019-02-17T09:21:52.845Z,1004.28
2019-02-17T09:22:52.842Z,1004.25
2019-02-17T09:23:53.555Z,1004.26
2019-02-17T09:24:52.813Z,1004.29
2019-02-17T09:25:52.815Z,1004.26
2019-02-17T09:26:52.829Z,1004.26
2019-02-17T09:27:52.783Z,1004.26
2019-02-17T09:28:52.802Z,1004.29
2019-02-17T09:29:52.764Z,1004.22
2019-02-17T09:30:52.748Z,1004.13
2019-02-17T09:31:52.746Z,1004.21
2019-02-17T09:32:52.755Z,1004.13
2019-02-17T09:33:52.743Z,1004.18
2019-02-17T09:34:52.710Z,1004.18
2019-02-17T09:35:52.688Z,1004.15
2019-02-17T09:36:52.678Z,1004.16
2019-02-17T09:37:52.673Z,1004.24
2019-02-17T09:38:53.592Z,1004.26
2019-02-17T09:39:52.659Z,1004.20
2019-02-17T09:40:52.636Z,1004.22
2019-02-17T09:41:52.632Z,1004.23
2019-02-17T09:42:52.613Z,1004.24
2019-02-17T09:43:52.630Z,1004.25
2019-02-17T09:44:52.592Z,1004.25
2019-02-17T09:45:52.613Z,1004.23
2019-02-17T09:46:52.568Z,1004.29
2019-02-17T09:47:52.555Z,1004.27
2019-02-17T09:48:52.577Z,1004.26
2019-02-17T09:49:52.542Z,1004.26
2019-02-17T09:50:52.537Z,1004.24
2019-02-17T09:51:52.513Z,1004.27
2019-02-17T09:52:52.508Z,1004.26
2019-02-17T09:53:52.554Z,1004.24
2019-02-17T09:54:52.489Z,1004.19
2019-02-17T09:55:52.480Z,1004.21
2019-02-17T09:56:52.468Z,1004.24
2019-02-17T09:57:52.443Z,1004.22
2019-02-17T09:58:52.458Z,1004.23
2019-02-17T09:59:52.451Z,1004.22
2019-02-17T10:00:52.429Z,1004.19
2019-02-17T10:01:52.406Z,1004.16
2019-02-17T10:02:52.393Z,1004.19
2019-02-17T10:03:52.392Z,1004.19
2019-02-17T10:04:52.394Z,1004.22
2019-02-17T10:05:52.356Z,1004.19
2019-02-17T10:06:52.396Z,1004.19
2019-02-17T10:07:52.344Z,1004.17
2019-02-17T10:08:52.322Z,1004.19
2019-02-17T10:09:52.337Z,1004.22
2019-02-17T10:10:52.302Z,1004.22
2019-02-17T10:11:52.292Z,1004.17
2019-02-17T10:12:52.319Z,1004.28
2019-02-17T10:13:52.267Z,1004.26
2019-02-17T10:14:52.281Z,1004.26
2019-02-17T10:15:52.249Z,1004.23
2019-02-17T10:16:52.228Z,1004.26
2019-02-17T10:17:52.222Z,1004.23
2019-02-17T10:18:52.278Z,1004.28
2019-02-17T10:19:52.240Z,1004.23
2019-02-17T10:20:52.187Z,1004.20
2019-02-17T10:21:52.180Z,1004.27
2019-02-17T10:22:52.165Z,1004.25
2019-02-17T10:23:52.158Z,1004.24
2019-02-17T10:24:52.225Z,1004.17
2019-02-17T10:25:52.134Z,1004.23
2019-02-17T10:26:52.127Z,1004.22
2019-02-17T10:27:52.109Z,1004.22
2019-02-17T10:28:52.111Z,1004.24
2019-02-17T10:29:52.115Z,1004.28
2019-02-17T10:30:52.131Z,1004.25
2019-02-17T10:31:52.066Z,1004.17
2019-02-17T10:32:52.069Z,1004.22
2019-02-17T10:33:52.044Z,1004.23
2019-02-17T10:34:52.055Z,1004.16
2019-02-17T10:35:52.021Z,1004.13
2019-02-17T10:36:52.047Z,1004.14
2019-02-17T10:37:52.003Z,1004.15
2019-02-17T10:38:51.997Z,1004.13
2019-02-17T10:39:51.999Z,1004.09
2019-02-17T10:40:51.974Z,1004.09
2019-02-17T10:41:51.966Z,1004.10
2019-02-17T10:42:51.970Z,1004.06
2019-02-17T10:43:51.939Z,1004.05
2019-02-17T10:44:51.944Z,1004.01
2019-02-17T10:45:51.909Z,1004.08
2019-02-17T10:46:51.906Z,1003.99
2019-02-17T10:47:51.920Z,1004.02
2019-02-17T10:48:51.878Z,1004.03
2019-02-17T10:49:51.895Z,1004.08
2019-02-17T10:50:51.860Z,1004.06
2019-02-17T10:51:51.842Z,1004.02
2019-02-17T10:52:51.831Z,1003.99
2019-02-17T10:53:51.821Z,1004.01
2019-02-17T10:54:51.855Z,1003.99
2019-02-17T10:55:51.802Z,1004.01
2019-02-17T10:56:51.790Z,1004.03
2019-02-17T10:57:51.776Z,1004.03
2019-02-17T10:58:51.773Z,1004.01
2019-02-17T10:59:51.776Z,1003.99
2019-02-17T11:00:51.766Z,1004.03
2019-02-17T11:01:51.732Z,1003.99
2019-02-17T11:02:51.734Z,1003.96
2019-02-17T11:03:51.714Z,1003.95
2019-02-17T11:04:51.722Z,1003.94
2019-02-17T11:05:51.686Z,1003.91
2019-02-17T11:06:51.682Z,1003.89
2019-02-17T11:07:51.665Z,1003.94
2019-02-17T11:08:51.675Z,1003.93
2019-02-17T11:09:51.674Z,1003.92
2019-02-17T11:10:51.635Z,1003.92
2019-02-17T11:11:51.625Z,1003.91
2019-02-17T11:12:51.613Z,1003.89
2019-02-17T11:13:51.597Z,1003.78
2019-02-17T11:14:51.656Z,1003.80
2019-02-17T11:15:51.578Z,1003.79
2019-02-17T11:16:51.568Z,1003.83
2019-02-17T11:17:51.564Z,1003.85
2019-02-17T11:18:52.018Z,1003.79
2019-02-17T11:19:51.560Z,1003.77
2019-02-17T11:20:51.555Z,1003.75
2019-02-17T11:21:51.505Z,1003.71
2019-02-17T11:22:51.522Z,1003.68
2019-02-17T11:23:51.496Z,1003.67
2019-02-17T11:24:51.506Z,1003.67
2019-02-17T11:25:51.465Z,1003.66
2019-02-17T11:26:51.457Z,1003.63
2019-02-17T11:27:51.440Z,1003.63
2019-02-17T11:28:51.466Z,1003.61
2019-02-17T11:29:51.438Z,1003.63
2019-02-17T11:30:51.407Z,1003.62
2019-02-17T11:31:51.401Z,1003.58
2019-02-17T11:32:58.012Z,1003.63
2019-02-17T11:33:52.377Z,1003.62
2019-02-17T11:34:51.408Z,1003.59
2019-02-17T11:35:51.358Z,1003.61
2019-02-17T11:36:51.344Z,1003.65
2019-02-17T11:37:51.334Z,1003.63
2019-02-17T11:38:51.319Z,1003.64
2019-02-17T11:39:51.330Z,1003.65
2019-02-17T11:40:51.343Z,1003.67
2019-02-17T11:41:51.293Z,1003.60
2019-02-17T11:42:51.276Z,1003.59
2019-02-17T11:43:51.262Z,1003.62
2019-02-17T11:44:51.276Z,1003.67
2019-02-17T11:45:51.240Z,1003.66
2019-02-17T11:46:51.277Z,1003.66
2019-02-17T11:47:51.248Z,1003.58
2019-02-17T11:48:51.202Z,1003.64
2019-02-17T11:49:51.193Z,1003.62
2019-02-17T11:50:51.223Z,1003.57
2019-02-17T11:51:51.172Z,1003.58
2019-02-17T11:52:51.188Z,1003.49
2019-02-17T11:53:51.152Z,1003.51
2019-02-17T11:54:51.139Z,1003.47
2019-02-17T11:55:51.156Z,1003.45
2019-02-17T11:56:51.122Z,1003.44
2019-02-17T11:57:51.109Z,1003.40
2019-02-17T11:58:51.099Z,1003.39
2019-02-17T11:59:51.173Z,1003.43
2019-02-17T12:00:51.099Z,1003.43
2019-02-17T12:01:51.060Z,1003.37
2019-02-17T12:02:51.050Z,1003.35
2019-02-17T12:03:51.035Z,1003.35
2019-02-17T12:04:51.030Z,1003.30
2019-02-17T12:05:51.079Z,1003.27